This is the latest recevied weather packets stored in our database for station/object LU8AQL-WX. If no packets are shown the sender has not sent any weather packets the latest 10 day(s).
| Time | Temp. | Humidity | Pressure | Rain* | Wind** | Luminosity | Snow |
|---|---|---|---|---|---|---|---|
| 1787493777 | 9.44° C | 66% | 1027 hPa | 0 mm | - | - | - |
| 1787493176 | 9.44° C | 67% | 1027 hPa | 0 mm | - | - | - |
| 1787492574 | 8.89° C | 68% | 1027 hPa | 0 mm | - | - | - |
| 1787491974 | 8.33° C | 70% | 1027 hPa | 0 mm | - | - | - |
| 1787491373 | 8.33° C | 71% | 1027 hPa | 0 mm | - | - | - |
| 1787490772 | 7.78° C | 71% | 1027 hPa | 0 mm | - | - | - |
| 1787490171 | 7.78° C | 71% | 1027 hPa | 0 mm | - | - | - |
| 1787489570 | 7.22° C | 73% | 1027 hPa | 0 mm | - | - | - |
| 1787488968 | 7.22° C | 74% | 1027 hPa | 0 mm | - | - | - |
| 1787488367 | 6.67° C | 74% | 1027 hPa | 0 mm | - | - | - |
| 1787487767 | 6.67° C | 75% | 1026 hPa | 0 mm | - | - | - |
| 1787487165 | 6.67° C | 74% | 1026 hPa | 0 mm | - | - | - |
| 1787486564 | 5.56° C | 79% | 1027 hPa | 0 mm | - | - | - |
| 1787485963 | 5.56° C | 79% | 1027 hPa | 0 mm | - | - | - |
| 1787485362 | 5° C | 80% | 1027 hPa | 0 mm | - | - | - |
| 1787484761 | 4.44° C | 80% | 1027 hPa | 0 mm | - | - | - |
| 1787484160 | 4.44° C | 80% | 1026 hPa | 0 mm | - | - | - |
| 1787483559 | 4.44° C | 80% | 1026 hPa | 0 mm | - | - | - |
| 1787482958 | 5.56° C | 76% | 1026 hPa | 0 mm | - | - | - |
| 1787482357 | 5.56° C | 76% | 1026 hPa | 0 mm | - | - | - |
| 1787481756 | 5.56° C | 76% | 1026 hPa | 0 mm | - | - | - |
| 1787481155 | 4.44° C | 76% | 1026 hPa | 0 mm | - | - | - |
| 1787480554 | 4.44° C | 76% | 1025 hPa | 0 mm | - | - | - |
| 1787479953 | 5.56° C | 76% | 1025 hPa | 0 mm | - | - | - |
| 1787479352 | 5.56° C | 72% | 1025 hPa | 0 mm | - | - | - |
* Rain latest hour (hover to see other rain measurements)
** Current wind speed in m/s (hover to see current wind gust speed)